createdAt,value
2022-12-22T04:47:44.767Z,12.70
2022-12-22T04:50:11.713Z,12.80
2022-12-22T04:52:38.716Z,12.70
2022-12-22T04:55:06.684Z,12.80
2022-12-22T04:57:40.051Z,12.70
2022-12-22T05:00:08.014Z,12.80
2022-12-22T05:02:35.011Z,12.70
2022-12-22T05:05:02.095Z,12.70
2022-12-22T05:07:28.973Z,12.80
2022-12-22T05:09:55.924Z,12.80
2022-12-22T05:12:41.353Z,12.90
2022-12-22T05:15:08.402Z,12.90
2022-12-22T05:17:35.353Z,12.90
2022-12-22T05:20:02.402Z,12.90
2022-12-22T05:22:29.336Z,13.10
2022-12-22T05:24:56.313Z,12.90
2022-12-22T05:27:23.255Z,12.90
2022-12-22T05:29:50.144Z,12.90
2022-12-22T05:32:17.022Z,13.00
2022-12-22T05:34:44.043Z,13.00
2022-12-22T05:37:10.983Z,13.20
2022-12-22T05:39:37.862Z,13.00
2022-12-22T05:42:04.817Z,12.90
2022-12-22T05:44:31.698Z,12.90
2022-12-22T05:46:58.573Z,12.90
2022-12-22T05:49:25.540Z,12.90
2022-12-22T05:51:54.136Z,12.80
2022-12-22T05:54:21.105Z,12.70
2022-12-22T05:56:48.061Z,12.80
2022-12-22T05:59:15.011Z,12.90
2022-12-22T06:01:42.007Z,13.00
2022-12-22T06:04:09.051Z,13.00
2022-12-22T06:06:36.029Z,13.00
2022-12-22T06:09:02.925Z,13.00
2022-12-22T06:11:29.809Z,13.10
2022-12-22T06:13:56.730Z,13.10
2022-12-22T06:16:23.834Z,13.00
2022-12-22T06:18:50.838Z,12.80
2022-12-22T06:21:17.722Z,12.60
2022-12-22T06:23:44.630Z,12.70
2022-12-22T06:26:11.567Z,12.70
2022-12-22T06:28:38.475Z,12.70
2022-12-22T06:31:05.447Z,12.80
2022-12-22T06:33:32.372Z,12.80
2022-12-22T06:36:03.718Z,12.90
2022-12-22T06:38:30.590Z,12.90
2022-12-22T06:40:57.534Z,13.00
2022-12-22T06:43:25.199Z,12.70
2022-12-22T06:45:52.312Z,12.70
2022-12-22T06:48:19.304Z,12.70
2022-12-22T06:50:46.255Z,12.70
2022-12-22T06:53:13.227Z,12.80
2022-12-22T06:55:40.108Z,12.90
2022-12-22T06:58:07.070Z,12.90
2022-12-22T07:00:34.333Z,13.00
2022-12-22T07:03:01.568Z,12.90
2022-12-22T07:05:30.383Z,13.00
2022-12-22T07:08:02.521Z,13.00
2022-12-22T07:10:51.519Z,13.00
2022-12-22T07:13:21.355Z,13.00
2022-12-22T07:15:53.850Z,13.10
2022-12-22T07:18:26.613Z,13.10
2022-12-22T07:20:54.900Z,13.10
2022-12-22T07:23:21.958Z,13.00
2022-12-22T07:25:48.943Z,13.00
2022-12-22T07:28:20.629Z,13.00
2022-12-22T07:30:51.762Z,13.00
2022-12-22T07:33:18.974Z,13.00
2022-12-22T07:35:46.312Z,12.70
2022-12-22T07:38:13.285Z,12.50
2022-12-22T07:40:42.494Z,12.40
2022-12-22T07:43:10.503Z,12.30
2022-12-22T07:45:38.006Z,12.30
2022-12-22T07:48:27.568Z,12.20
2022-12-22T07:50:56.560Z,12.10
2022-12-22T07:53:23.527Z,12.00
2022-12-22T07:55:50.428Z,12.10
2022-12-22T07:58:17.351Z,12.10
2022-12-22T08:00:44.337Z,12.10
2022-12-22T08:03:11.336Z,12.20
2022-12-22T08:05:38.336Z,12.30
2022-12-22T08:08:05.394Z,12.30
2022-12-22T08:10:32.855Z,12.40
2022-12-22T08:12:59.912Z,12.50
2022-12-22T08:15:26.949Z,12.60
2022-12-22T08:17:53.867Z,12.60
2022-12-22T08:20:20.802Z,12.60
2022-12-22T08:22:47.693Z,12.70
2022-12-22T08:25:14.589Z,12.80
2022-12-22T08:27:44.093Z,12.80
2022-12-22T08:30:11.312Z,12.90
2022-12-22T08:32:38.626Z,12.70
2022-12-22T08:35:06.136Z,12.60
2022-12-22T08:37:40.969Z,12.50
2022-12-22T08:40:08.723Z,12.40
2022-12-22T08:42:35.733Z,12.20
2022-12-22T08:45:02.680Z,12.30
2022-12-22T08:47:29.774Z,12.40
2022-12-22T08:49:56.755Z,12.40
2022-12-22T08:52:23.686Z,12.40
2022-12-22T08:54:50.556Z,12.30
2022-12-22T08:57:17.561Z,12.20
2022-12-22T08:59:44.635Z,12.20
2022-12-22T09:02:11.587Z,12.20
2022-12-22T09:04:38.670Z,12.30
2022-12-22T09:07:05.621Z,12.30
2022-12-22T09:09:33.163Z,12.40
2022-12-22T09:12:00.684Z,12.30
2022-12-22T09:14:28.178Z,12.30
2022-12-22T09:16:55.233Z,12.30
2022-12-22T09:19:22.549Z,12.30
2022-12-22T09:21:49.510Z,12.40
2022-12-22T09:24:16.829Z,12.40
2022-12-22T09:26:43.751Z,12.30
2022-12-22T09:29:11.096Z,12.30
2022-12-22T09:31:38.228Z,12.30
2022-12-22T09:34:05.175Z,12.00
2022-12-22T09:36:32.898Z,12.00
2022-12-22T09:39:04.325Z,11.90
2022-12-22T09:41:33.108Z,12.00
2022-12-22T09:44:10.609Z,12.00
2022-12-22T09:46:39.523Z,11.90
2022-12-22T09:49:07.086Z,12.00
2022-12-22T09:51:39.365Z,12.00
2022-12-22T09:54:06.314Z,12.10
2022-12-22T09:56:33.201Z,12.20
2022-12-22T09:59:00.251Z,12.20
2022-12-22T10:01:32.460Z,12.40
2022-12-22T10:04:02.334Z,12.40
2022-12-22T10:06:49.501Z,12.40
2022-12-22T10:12:14.594Z,12.50
2022-12-22T10:14:42.722Z,12.50
2022-12-22T10:17:18.694Z,12.50
2022-12-22T10:19:46.567Z,12.50
2022-12-22T10:22:22.107Z,12.50
2022-12-22T10:24:49.223Z,12.50
2022-12-22T10:27:16.674Z,12.50
2022-12-22T10:29:43.659Z,12.50
2022-12-22T10:32:14.873Z,12.60
2022-12-22T10:35:00.187Z,12.70
2022-12-22T10:37:31.224Z,12.90
2022-12-22T10:39:58.263Z,13.00
2022-12-22T10:42:25.268Z,13.00
2022-12-22T10:44:52.267Z,13.00
2022-12-22T10:47:20.922Z,13.00
2022-12-22T10:49:49.680Z,12.90
2022-12-22T10:52:29.915Z,12.90
2022-12-22T10:55:16.842Z,13.00
2022-12-22T10:57:43.841Z,13.00
2022-12-22T11:00:24.586Z,13.00
2022-12-22T11:02:53.072Z,13.00
2022-12-22T11:05:20.373Z,13.10
2022-12-22T11:07:47.973Z,13.10
2022-12-22T11:10:14.997Z,13.20
2022-12-22T11:12:50.877Z,13.20
2022-12-22T11:15:24.857Z,13.30
2022-12-22T11:17:51.985Z,13.30
2022-12-22T11:20:26.431Z,13.30
2022-12-22T11:23:00.593Z,13.30
2022-12-22T11:25:35.552Z,13.40
2022-12-22T11:28:02.478Z,13.30
2022-12-22T11:30:41.030Z,13.30
2022-12-22T11:33:14.158Z,13.40
2022-12-22T11:35:46.872Z,13.40
2022-12-22T11:38:16.648Z,13.30
2022-12-22T11:40:46.635Z,13.30
2022-12-22T11:43:29.190Z,13.30
2022-12-22T11:46:10.888Z,13.30
2022-12-22T11:48:40.625Z,13.30
2022-12-22T11:51:13.574Z,13.20
2022-12-22T11:53:49.981Z,13.10
2022-12-22T11:56:24.331Z,13.20
2022-12-22T11:58:56.959Z,13.20
2022-12-22T12:01:36.040Z,13.20
2022-12-22T12:04:21.705Z,13.30
2022-12-22T12:06:48.722Z,13.30
2022-12-22T12:09:38.309Z,13.40
2022-12-22T12:12:19.327Z,13.40
2022-12-22T12:14:48.971Z,13.40
2022-12-22T12:17:44.962Z,13.40
2022-12-22T12:20:12.034Z,13.40
2022-12-22T12:22:44.991Z,13.40
2022-12-22T12:25:30.518Z,13.20
2022-12-22T12:28:06.103Z,13.30
2022-12-22T12:30:39.170Z,13.30
2022-12-22T12:33:25.159Z,13.30
2022-12-22T12:36:01.243Z,13.30
2022-12-22T12:41:45.474Z,13.40
2022-12-22T12:44:14.278Z,13.50
2022-12-22T12:46:44.093Z,13.50
2022-12-22T12:49:29.583Z,13.50
2022-12-22T12:51:56.583Z,13.40
2022-12-22T12:54:34.542Z,13.30
2022-12-22T12:57:09.733Z,13.40
2022-12-22T12:59:42.595Z,13.40
2022-12-22T13:02:27.995Z,13.40
2022-12-22T13:05:13.305Z,13.40
2022-12-22T13:07:58.911Z,13.40
2022-12-22T13:10:26.013Z,13.40
2022-12-22T13:12:54.013Z,13.40
2022-12-22T13:15:37.430Z,13.40
2022-12-22T13:18:09.312Z,13.20
2022-12-22T13:20:37.553Z,13.20
2022-12-22T13:23:11.080Z,13.40
2022-12-22T13:25:45.223Z,13.50
2022-12-22T13:28:15.016Z,13.50
2022-12-22T13:30:45.625Z,13.70
2022-12-22T13:33:14.655Z,13.60
2022-12-22T13:35:47.168Z,13.60
2022-12-22T13:38:29.326Z,13.60
2022-12-22T13:40:57.340Z,13.60
2022-12-22T13:43:24.693Z,13.60
2022-12-22T13:45:55.386Z,13.50
2022-12-22T13:48:25.134Z,13.60
2022-12-22T13:51:02.422Z,13.60
2022-12-22T13:56:34.350Z,13.70
2022-12-22T13:59:02.314Z,13.80
2022-12-22T14:01:29.426Z,13.90
2022-12-22T14:04:03.513Z,14.00
2022-12-22T14:06:37.967Z,14.00
2022-12-22T14:09:10.739Z,14.10
2022-12-22T14:11:37.972Z,14.10
2022-12-22T14:14:09.231Z,14.00
2022-12-22T14:16:42.155Z,14.00
2022-12-22T14:19:11.234Z,14.10
2022-12-22T14:21:38.226Z,14.20
2022-12-22T14:24:05.297Z,14.10
2022-12-22T14:26:32.271Z,14.10
2022-12-22T14:28:59.470Z,14.20
2022-12-22T14:31:26.421Z,14.10
2022-12-22T14:33:54.747Z,14.20
2022-12-22T14:36:25.945Z,14.30
2022-12-22T14:38:57.052Z,14.20
2022-12-22T14:41:43.895Z,14.20
2022-12-22T14:44:21.972Z,14.20
2022-12-22T14:47:07.068Z,14.20
2022-12-22T14:49:35.212Z,14.10
2022-12-22T14:52:07.508Z,14.10
2022-12-22T14:54:34.575Z,14.10
2022-12-22T14:57:15.336Z,14.20
2022-12-22T14:59:57.238Z,14.10
2022-12-22T15:02:31.110Z,14.20
2022-12-22T15:05:07.836Z,14.10
2022-12-22T15:10:38.264Z,14.00
2022-12-22T15:13:06.865Z,13.90
2022-12-22T15:15:34.012Z,14.00
2022-12-22T15:18:00.947Z,13.90
2022-12-22T15:20:32.407Z,14.00
2022-12-22T15:23:10.056Z,14.00
2022-12-22T15:25:37.005Z,14.00
2022-12-22T15:28:03.982Z,13.90
2022-12-22T15:30:30.988Z,13.90
2022-12-22T15:32:58.071Z,13.90
2022-12-22T15:35:32.631Z,13.90
2022-12-22T15:37:59.788Z,13.90
2022-12-22T15:40:27.175Z,13.90
2022-12-22T15:42:54.397Z,13.80
2022-12-22T15:45:22.084Z,13.90
2022-12-22T15:47:50.593Z,13.90
2022-12-22T15:50:19.681Z,13.70
2022-12-22T15:52:49.889Z,13.70
2022-12-22T15:55:17.245Z,13.60
2022-12-22T15:57:44.471Z,13.60
2022-12-22T16:00:15.215Z,13.60
2022-12-22T16:02:42.314Z,13.50
2022-12-22T16:05:09.622Z,13.50
2022-12-22T16:07:37.404Z,13.50
2022-12-22T16:10:05.406Z,13.60
2022-12-22T16:12:32.416Z,13.60
2022-12-22T16:15:00.511Z,13.60
2022-12-22T16:17:28.351Z,13.70
2022-12-22T16:19:55.276Z,13.70
2022-12-22T16:22:29.061Z,13.80
2022-12-22T16:24:55.954Z,13.80
2022-12-22T16:27:23.006Z,13.80
2022-12-22T16:29:51.605Z,13.80
2022-12-22T16:32:24.379Z,13.80
2022-12-22T16:34:51.411Z,13.80
2022-12-22T16:37:18.341Z,13.90
2022-12-22T16:39:45.920Z,13.90
2022-12-22T16:44:58.471Z,13.90
2022-12-22T16:47:31.286Z,13.90
2022-12-22T16:49:59.630Z,13.90
2022-12-22T16:52:37.623Z,13.90
2022-12-22T16:55:14.294Z,13.90
2022-12-22T16:57:41.189Z,13.90
2022-12-22T17:00:15.617Z,13.90
2022-12-22T17:02:45.660Z,13.80
2022-12-22T17:05:24.995Z,13.80
2022-12-22T17:07:52.010Z,13.70
2022-12-22T17:10:19.909Z,13.70
2022-12-22T17:12:47.136Z,13.70
2022-12-22T17:15:18.314Z,13.70
2022-12-22T17:17:45.690Z,13.70
2022-12-22T17:20:16.232Z,13.70
2022-12-22T17:22:45.217Z,13.70
2022-12-22T17:25:17.569Z,13.70
2022-12-22T17:27:44.840Z,13.60
2022-12-22T17:30:18.360Z,13.60
2022-12-22T17:32:45.733Z,13.60
2022-12-22T17:35:13.863Z,13.70
2022-12-22T17:37:41.295Z,13.70
2022-12-22T17:40:11.912Z,13.80
2022-12-22T17:42:38.948Z,13.70
2022-12-22T17:45:06.336Z,13.60
2022-12-22T17:47:40.407Z,13.60
2022-12-22T17:50:13.886Z,13.60
2022-12-22T17:52:41.347Z,13.50
2022-12-22T17:55:19.172Z,13.40
2022-12-22T17:57:46.471Z,13.40
2022-12-22T18:00:31.358Z,13.40
2022-12-22T18:02:58.759Z,13.30
2022-12-22T18:05:27.553Z,13.30
2022-12-22T18:07:59.807Z,13.40
2022-12-22T18:10:28.314Z,13.40
2022-12-22T18:12:56.319Z,13.50
2022-12-22T18:15:24.027Z,13.50
2022-12-22T18:17:50.930Z,13.50
2022-12-22T18:20:19.575Z,13.60
2022-12-22T18:22:46.677Z,13.60
2022-12-22T18:25:17.701Z,13.70
2022-12-22T18:27:44.687Z,13.60
2022-12-22T18:30:15.586Z,13.60
2022-12-22T18:32:42.597Z,13.60
2022-12-22T18:35:09.549Z,13.50
2022-12-22T18:37:37.119Z,13.70
2022-12-22T18:40:04.328Z,13.60
2022-12-22T18:42:33.062Z,13.50
2022-12-22T18:44:59.992Z,13.50
2022-12-22T18:47:26.914Z,13.50
2022-12-22T18:49:54.089Z,13.50
2022-12-22T18:52:22.603Z,13.50
2022-12-22T18:54:49.656Z,13.50
2022-12-22T18:57:17.680Z,13.60
2022-12-22T18:59:44.806Z,13.60
2022-12-22T19:02:15.033Z,13.60
2022-12-22T19:04:41.979Z,13.60
2022-12-22T19:07:16.035Z,13.60
2022-12-22T19:09:43.066Z,13.60
2022-12-22T19:12:13.816Z,13.60
2022-12-22T19:14:42.179Z,13.60
2022-12-22T19:17:16.756Z,13.60
2022-12-22T19:19:43.690Z,13.60
2022-12-22T19:22:14.380Z,13.60
2022-12-22T19:24:41.919Z,13.60
2022-12-22T19:27:13.916Z,13.60
2022-12-22T19:29:40.888Z,13.60
2022-12-22T19:32:13.140Z,13.60
2022-12-22T19:34:40.110Z,13.60
2022-12-22T19:37:08.249Z,13.60
2022-12-22T19:39:35.768Z,13.60
2022-12-22T19:42:02.723Z,13.60
2022-12-22T19:44:30.468Z,13.70
2022-12-22T19:46:59.274Z,13.60
2022-12-22T19:49:27.315Z,13.70
2022-12-22T19:51:57.595Z,13.60
2022-12-22T19:54:24.763Z,13.60
2022-12-22T19:56:53.404Z,13.60
2022-12-22T19:59:38.739Z,13.60
2022-12-22T20:02:21.449Z,13.60
2022-12-22T20:04:49.030Z,13.60
2022-12-22T20:07:16.593Z,13.60
2022-12-22T20:09:43.555Z,13.80
2022-12-22T20:12:24.800Z,13.50
2022-12-22T20:14:52.090Z,13.50
2022-12-22T20:17:19.418Z,13.40
2022-12-22T20:19:46.383Z,13.50
2022-12-22T20:22:15.008Z,13.50
2022-12-22T20:24:42.197Z,13.60
2022-12-22T20:27:15.366Z,13.50
2022-12-22T20:29:42.313Z,13.40
2022-12-22T20:32:12.410Z,13.40
2022-12-22T20:34:39.429Z,13.50
2022-12-22T20:37:06.382Z,13.50
2022-12-22T20:39:33.323Z,13.50
2022-12-22T20:42:00.284Z,13.50
2022-12-22T20:44:28.159Z,13.40
2022-12-22T20:46:55.141Z,13.40
2022-12-22T20:49:22.100Z,13.50
2022-12-22T20:51:49.071Z,13.50
2022-12-22T20:54:16.013Z,13.40
2022-12-22T20:56:43.696Z,13.40
2022-12-22T20:59:13.378Z,13.40
2022-12-22T21:01:40.379Z,13.40
2022-12-22T21:04:07.374Z,13.50
2022-12-22T21:06:36.339Z,13.50
2022-12-22T21:09:03.376Z,13.40
2022-12-22T21:11:30.794Z,13.40
2022-12-22T21:13:58.189Z,13.40
2022-12-22T21:16:26.630Z,13.50
2022-12-22T21:18:54.397Z,13.40
2022-12-22T21:21:21.523Z,13.40
2022-12-22T21:23:48.457Z,13.40
2022-12-22T21:26:21.104Z,13.40
2022-12-22T21:28:48.366Z,13.30
2022-12-22T21:31:15.400Z,13.30
2022-12-22T21:33:42.513Z,13.20
2022-12-22T21:36:17.290Z,13.20
2022-12-22T21:38:44.274Z,13.20
2022-12-22T21:41:11.162Z,13.10
2022-12-22T21:43:38.038Z,13.10
2022-12-22T21:46:05.574Z,13.10
2022-12-22T21:48:34.668Z,13.10
2022-12-22T21:51:01.616Z,13.10
2022-12-22T21:53:28.527Z,13.30
2022-12-22T21:55:55.471Z,13.10
2022-12-22T21:58:22.549Z,13.10
2022-12-22T22:00:49.826Z,13.10
2022-12-22T22:03:16.892Z,13.10
2022-12-22T22:05:43.984Z,13.10
2022-12-22T22:08:11.722Z,13.10
2022-12-22T22:10:42.795Z,13.10
2022-12-22T22:13:15.644Z,13.10
2022-12-22T22:15:42.979Z,13.00
2022-12-22T22:18:14.165Z,13.00
2022-12-22T22:20:41.133Z,13.00
2022-12-22T22:23:10.602Z,13.10
2022-12-22T22:25:37.527Z,12.90
2022-12-22T22:28:04.500Z,12.80
2022-12-22T22:30:31.400Z,12.80
2022-12-22T22:32:58.286Z,12.80
2022-12-22T22:35:26.550Z,12.80
2022-12-22T22:37:53.704Z,12.70
2022-12-22T22:40:21.574Z,12.80
2022-12-22T22:42:48.584Z,12.80
2022-12-22T22:45:16.946Z,12.80
2022-12-22T22:47:43.891Z,12.80
2022-12-22T22:50:10.943Z,12.70
2022-12-22T22:52:37.985Z,12.80
2022-12-22T22:55:05.085Z,12.70
2022-12-22T22:57:32.021Z,12.70
2022-12-22T22:59:58.906Z,12.70
2022-12-22T23:02:25.969Z,12.80
2022-12-22T23:04:52.984Z,12.90
2022-12-22T23:07:19.889Z,12.80
2022-12-22T23:09:46.819Z,12.80
2022-12-22T23:12:13.722Z,12.70
2022-12-22T23:14:40.677Z,12.70
2022-12-22T23:17:07.662Z,12.70
2022-12-22T23:19:34.732Z,12.70
2022-12-22T23:22:01.739Z,12.80
2022-12-22T23:24:28.682Z,12.70
2022-12-22T23:26:55.570Z,12.60
2022-12-22T23:29:22.513Z,12.80
2022-12-22T23:31:49.531Z,12.70
2022-12-22T23:34:16.528Z,12.80
2022-12-22T23:36:43.568Z,12.70
2022-12-22T23:39:10.548Z,12.70
2022-12-22T23:41:37.450Z,12.80
2022-12-22T23:44:04.372Z,12.80
2022-12-22T23:46:31.337Z,12.90
2022-12-22T23:48:58.577Z,12.90
2022-12-22T23:51:26.865Z,12.80
2022-12-22T23:53:54.681Z,12.80
2022-12-22T23:56:21.796Z,12.70
2022-12-22T23:58:54.531Z,12.80
